sensor_id;sensor_type;location;lat;lon;timestamp;temperature;humidity
26947;DHT22;14501;52.282;10.560;2023-06-26T00:02:18;19.50;99.90
26947;DHT22;14501;52.282;10.560;2023-06-26T00:04:44;19.40;99.90
26947;DHT22;14501;52.282;10.560;2023-06-26T00:07:10;19.40;99.90
26947;DHT22;14501;52.282;10.560;2023-06-26T00:09:36;19.40;99.90
26947;DHT22;14501;52.282;10.560;2023-06-26T00:12:02;19.40;99.90
26947;DHT22;14501;52.282;10.560;2023-06-26T00:14:28;19.40;99.90
26947;DHT22;14501;52.282;10.560;2023-06-26T00:16:53;19.40;99.90
26947;DHT22;14501;52.282;10.560;2023-06-26T00:19:19;19.40;99.90
26947;DHT22;14501;52.282;10.560;2023-06-26T00:21:45;19.30;99.90
26947;DHT22;14501;52.282;10.560;2023-06-26T00:24:13;19.40;99.90
26947;DHT22;14501;52.282;10.560;2023-06-26T00:26:39;19.30;99.90
26947;DHT22;14501;52.282;10.560;2023-06-26T00:29:05;19.30;99.90
26947;DHT22;14501;52.282;10.560;2023-06-26T00:31:31;19.30;99.90
26947;DHT22;14501;52.282;10.560;2023-06-26T00:33:56;19.20;99.90
26947;DHT22;14501;52.282;10.560;2023-06-26T00:36:22;19.20;99.90
26947;DHT22;14501;52.282;10.560;2023-06-26T00:38:51;19.20;99.90
26947;DHT22;14501;52.282;10.560;2023-06-26T00:41:17;19.20;99.90
26947;DHT22;14501;52.282;10.560;2023-06-26T00:43:43;19.20;99.90
26947;DHT22;14501;52.282;10.560;2023-06-26T00:46:10;19.20;99.90
26947;DHT22;14501;52.282;10.560;2023-06-26T00:48:38;19.20;99.90
26947;DHT22;14501;52.282;10.560;2023-06-26T00:51:04;19.20;99.90
26947;DHT22;14501;52.282;10.560;2023-06-26T00:53:31;19.20;99.90
26947;DHT22;14501;52.282;10.560;2023-06-26T00:55:56;19.20;99.90
26947;DHT22;14501;52.282;10.560;2023-06-26T00:58:24;19.20;99.90
26947;DHT22;14501;52.282;10.560;2023-06-26T01:00:51;19.10;99.90
26947;DHT22;14501;52.282;10.560;2023-06-26T01:03:17;19.10;99.90
26947;DHT22;14501;52.282;10.560;2023-06-26T01:05:43;19.10;99.90
26947;DHT22;14501;52.282;10.560;2023-06-26T01:08:12;19.00;99.90
26947;DHT22;14501;52.282;10.560;2023-06-26T01:10:38;19.00;99.90
26947;DHT22;14501;52.282;10.560;2023-06-26T01:13:05;19.00;99.90
26947;DHT22;14501;52.282;10.560;2023-06-26T01:15:30;19.00;99.90
26947;DHT22;14501;52.282;10.560;2023-06-26T01:17:57;19.00;99.90
26947;DHT22;14501;52.282;10.560;2023-06-26T01:20:36;18.90;99.90
26947;DHT22;14501;52.282;10.560;2023-06-26T01:25:56;18.90;99.90
26947;DHT22;14501;52.282;10.560;2023-06-26T01:28:27;18.90;99.90
26947;DHT22;14501;52.282;10.560;2023-06-26T01:30:54;18.80;99.90
26947;DHT22;14501;52.282;10.560;2023-06-26T01:33:20;18.80;99.90
26947;DHT22;14501;52.282;10.560;2023-06-26T01:35:45;18.80;99.90
26947;DHT22;14501;52.282;10.560;2023-06-26T01:38:21;18.70;99.90
26947;DHT22;14501;52.282;10.560;2023-06-26T01:40:52;18.70;99.90
26947;DHT22;14501;52.282;10.560;2023-06-26T01:43:41;18.70;99.90
26947;DHT22;14501;52.282;10.560;2023-06-26T01:46:18;18.60;99.90
26947;DHT22;14501;52.282;10.560;2023-06-26T01:49:02;18.50;99.90
26947;DHT22;14501;52.282;10.560;2023-06-26T01:51:37;18.50;99.90
26947;DHT22;14501;52.282;10.560;2023-06-26T01:54:10;18.40;99.90
26947;DHT22;14501;52.282;10.560;2023-06-26T01:56:39;18.40;99.90
26947;DHT22;14501;52.282;10.560;2023-06-26T01:59:06;18.40;99.90
26947;DHT22;14501;52.282;10.560;2023-06-26T02:01:33;18.30;99.90
26947;DHT22;14501;52.282;10.560;2023-06-26T02:03:59;18.30;99.90
26947;DHT22;14501;52.282;10.560;2023-06-26T02:06:25;18.30;99.90
26947;DHT22;14501;52.282;10.560;2023-06-26T02:08:51;18.30;99.90
26947;DHT22;14501;52.282;10.560;2023-06-26T02:11:16;18.30;99.90
26947;DHT22;14501;52.282;10.560;2023-06-26T02:13:42;18.30;99.90
26947;DHT22;14501;52.282;10.560;2023-06-26T02:16:08;18.30;99.90
26947;DHT22;14501;52.282;10.560;2023-06-26T02:18:33;18.30;99.90
26947;DHT22;14501;52.282;10.560;2023-06-26T02:20:59;18.20;99.90
26947;DHT22;14501;52.282;10.560;2023-06-26T02:23:25;18.20;99.90
26947;DHT22;14501;52.282;10.560;2023-06-26T02:25:51;18.20;99.90
26947;DHT22;14501;52.282;10.560;2023-06-26T02:28:16;18.20;99.90
26947;DHT22;14501;52.282;10.560;2023-06-26T02:30:42;18.10;99.90
26947;DHT22;14501;52.282;10.560;2023-06-26T02:33:08;18.10;99.90
26947;DHT22;14501;52.282;10.560;2023-06-26T02:35:33;18.10;99.90
26947;DHT22;14501;52.282;10.560;2023-06-26T02:37:59;18.10;99.90
26947;DHT22;14501;52.282;10.560;2023-06-26T02:40:25;18.10;99.90
26947;DHT22;14501;52.282;10.560;2023-06-26T02:42:50;18.00;99.90
26947;DHT22;14501;52.282;10.560;2023-06-26T02:45:16;18.00;99.90
26947;DHT22;14501;52.282;10.560;2023-06-26T02:47:42;18.00;99.90
26947;DHT22;14501;52.282;10.560;2023-06-26T02:50:08;17.90;99.90
26947;DHT22;14501;52.282;10.560;2023-06-26T02:52:33;17.90;99.90
26947;DHT22;14501;52.282;10.560;2023-06-26T02:54:59;18.20;99.90
26947;DHT22;14501;52.282;10.560;2023-06-26T02:57:25;17.90;99.90
26947;DHT22;14501;52.282;10.560;2023-06-26T02:59:50;17.80;99.90
26947;DHT22;14501;52.282;10.560;2023-06-26T03:02:16;17.80;99.90
26947;DHT22;14501;52.282;10.560;2023-06-26T03:04:42;17.80;99.90
26947;DHT22;14501;52.282;10.560;2023-06-26T03:07:08;17.80;99.90
26947;DHT22;14501;52.282;10.560;2023-06-26T03:09:34;17.80;99.90
26947;DHT22;14501;52.282;10.560;2023-06-26T03:12:00;17.80;99.90
26947;DHT22;14501;52.282;10.560;2023-06-26T03:14:26;17.80;99.90
26947;DHT22;14501;52.282;10.560;2023-06-26T03:16:52;17.70;99.90
26947;DHT22;14501;52.282;10.560;2023-06-26T03:19:18;17.70;99.90
26947;DHT22;14501;52.282;10.560;2023-06-26T03:21:44;17.60;99.90
26947;DHT22;14501;52.282;10.560;2023-06-26T03:24:09;17.70;99.90
26947;DHT22;14501;52.282;10.560;2023-06-26T03:26:35;17.70;99.90
26947;DHT22;14501;52.282;10.560;2023-06-26T03:29:01;17.70;99.90
26947;DHT22;14501;52.282;10.560;2023-06-26T03:31:26;17.60;99.90
26947;DHT22;14501;52.282;10.560;2023-06-26T03:33:52;17.70;99.90
26947;DHT22;14501;52.282;10.560;2023-06-26T03:36:17;17.70;99.90
26947;DHT22;14501;52.282;10.560;2023-06-26T03:38:43;17.70;99.90
26947;DHT22;14501;52.282;10.560;2023-06-26T03:41:09;17.70;99.90
26947;DHT22;14501;52.282;10.560;2023-06-26T03:43:34;17.80;99.90
26947;DHT22;14501;52.282;10.560;2023-06-26T03:46:00;17.80;99.90
26947;DHT22;14501;52.282;10.560;2023-06-26T03:48:26;17.90;99.90
26947;DHT22;14501;52.282;10.560;2023-06-26T03:50:52;17.90;99.90
26947;DHT22;14501;52.282;10.560;2023-06-26T03:53:17;17.90;99.90
26947;DHT22;14501;52.282;10.560;2023-06-26T03:55:43;17.90;99.90
26947;DHT22;14501;52.282;10.560;2023-06-26T03:58:09;18.00;99.90
26947;DHT22;14501;52.282;10.560;2023-06-26T04:00:34;18.10;99.90
26947;DHT22;14501;52.282;10.560;2023-06-26T04:03:00;18.10;99.90
26947;DHT22;14501;52.282;10.560;2023-06-26T04:05:26;18.20;99.90
26947;DHT22;14501;52.282;10.560;2023-06-26T04:07:52;18.30;99.90
26947;DHT22;14501;52.282;10.560;2023-06-26T04:10:18;18.40;99.90
26947;DHT22;14501;52.282;10.560;2023-06-26T04:12:43;18.40;99.90
26947;DHT22;14501;52.282;10.560;2023-06-26T04:15:09;18.50;99.90
26947;DHT22;14501;52.282;10.560;2023-06-26T04:17:35;18.50;99.90
26947;DHT22;14501;52.282;10.560;2023-06-26T04:20:01;18.60;99.90
26947;DHT22;14501;52.282;10.560;2023-06-26T04:22:27;18.70;99.90
26947;DHT22;14501;52.282;10.560;2023-06-26T04:24:53;18.80;99.90
26947;DHT22;14501;52.282;10.560;2023-06-26T04:27:18;18.80;99.90
26947;DHT22;14501;52.282;10.560;2023-06-26T04:29:44;19.10;99.90
26947;DHT22;14501;52.282;10.560;2023-06-26T04:32:10;19.10;99.90
26947;DHT22;14501;52.282;10.560;2023-06-26T04:34:35;19.20;99.90
26947;DHT22;14501;52.282;10.560;2023-06-26T04:37:08;19.30;99.90
26947;DHT22;14501;52.282;10.560;2023-06-26T04:39:36;19.60;99.90
26947;DHT22;14501;52.282;10.560;2023-06-26T04:42:03;19.60;99.90
26947;DHT22;14501;52.282;10.560;2023-06-26T04:44:29;19.70;99.90
26947;DHT22;14501;52.282;10.560;2023-06-26T04:49:20;20.10;99.90
26947;DHT22;14501;52.282;10.560;2023-06-26T04:51:46;20.10;99.90
26947;DHT22;14501;52.282;10.560;2023-06-26T04:54:12;20.20;99.90
26947;DHT22;14501;52.282;10.560;2023-06-26T04:56:38;20.40;99.90
26947;DHT22;14501;52.282;10.560;2023-06-26T04:59:06;20.50;99.90
26947;DHT22;14501;52.282;10.560;2023-06-26T05:01:32;20.70;99.90
26947;DHT22;14501;52.282;10.560;2023-06-26T05:03:58;20.80;99.90
26947;DHT22;14501;52.282;10.560;2023-06-26T05:06:24;21.00;99.90
26947;DHT22;14501;52.282;10.560;2023-06-26T05:08:50;21.10;99.90
26947;DHT22;14501;52.282;10.560;2023-06-26T05:11:16;21.20;99.90
26947;DHT22;14501;52.282;10.560;2023-06-26T05:13:41;21.30;99.90
26947;DHT22;14501;52.282;10.560;2023-06-26T05:16:08;21.40;99.90
26947;DHT22;14501;52.282;10.560;2023-06-26T05:18:35;21.50;99.90
26947;DHT22;14501;52.282;10.560;2023-06-26T05:21:01;21.70;99.90
26947;DHT22;14501;52.282;10.560;2023-06-26T05:23:32;21.80;99.90
26947;DHT22;14501;52.282;10.560;2023-06-26T05:25:58;21.80;99.90
26947;DHT22;14501;52.282;10.560;2023-06-26T05:28:25;22.00;99.90
26947;DHT22;14501;52.282;10.560;2023-06-26T05:30:53;22.10;99.90
26947;DHT22;14501;52.282;10.560;2023-06-26T05:33:19;22.20;99.90
26947;DHT22;14501;52.282;10.560;2023-06-26T05:35:48;22.30;99.90
26947;DHT22;14501;52.282;10.560;2023-06-26T05:40:44;22.60;99.90
26947;DHT22;14501;52.282;10.560;2023-06-26T05:43:10;22.70;99.90
26947;DHT22;14501;52.282;10.560;2023-06-26T05:45:36;22.90;99.90
26947;DHT22;14501;52.282;10.560;2023-06-26T05:48:02;23.00;99.90
26947;DHT22;14501;52.282;10.560;2023-06-26T05:50:28;24.50;99.90
26947;DHT22;14501;52.282;10.560;2023-06-26T05:52:54;25.50;99.90
26947;DHT22;14501;52.282;10.560;2023-06-26T05:55:20;28.10;99.90
26947;DHT22;14501;52.282;10.560;2023-06-26T05:57:46;30.00;99.90
26947;DHT22;14501;52.282;10.560;2023-06-26T06:00:13;32.60;99.90
26947;DHT22;14501;52.282;10.560;2023-06-26T06:02:39;33.00;99.90
26947;DHT22;14501;52.282;10.560;2023-06-26T06:05:07;34.50;99.40
26947;DHT22;14501;52.282;10.560;2023-06-26T06:07:33;36.10;96.60
26947;DHT22;14501;52.282;10.560;2023-06-26T06:10:00;38.00;91.60
26947;DHT22;14501;52.282;10.560;2023-06-26T06:12:26;38.30;91.60
26947;DHT22;14501;52.282;10.560;2023-06-26T06:14:52;39.10;87.00
26947;DHT22;14501;52.282;10.560;2023-06-26T06:17:19;39.90;85.40
26947;DHT22;14501;52.282;10.560;2023-06-26T06:19:45;40.30;80.50
26947;DHT22;14501;52.282;10.560;2023-06-26T06:22:11;39.60;80.60
26947;DHT22;14501;52.282;10.560;2023-06-26T06:24:36;40.10;79.10
26947;DHT22;14501;52.282;10.560;2023-06-26T06:27:02;40.30;77.80
26947;DHT22;14501;52.282;10.560;2023-06-26T06:29:28;39.70;75.20
26947;DHT22;14501;52.282;10.560;2023-06-26T06:31:53;39.60;75.70
26947;DHT22;14501;52.282;10.560;2023-06-26T06:34:19;38.80;78.30
26947;DHT22;14501;52.282;10.560;2023-06-26T06:36:45;38.20;77.80
26947;DHT22;14501;52.282;10.560;2023-06-26T06:39:10;37.60;81.60
26947;DHT22;14501;52.282;10.560;2023-06-26T06:41:36;37.60;81.60
26947;DHT22;14501;52.282;10.560;2023-06-26T06:44:02;38.90;78.00
26947;DHT22;14501;52.282;10.560;2023-06-26T06:46:28;39.70;77.40
26947;DHT22;14501;52.282;10.560;2023-06-26T06:48:54;39.60;76.50
26947;DHT22;14501;52.282;10.560;2023-06-26T06:51:19;39.00;75.90
26947;DHT22;14501;52.282;10.560;2023-06-26T06:53:45;39.90;78.10
26947;DHT22;14501;52.282;10.560;2023-06-26T06:56:11;40.90;75.20
26947;DHT22;14501;52.282;10.560;2023-06-26T06:58:36;41.50;72.30
26947;DHT22;14501;52.282;10.560;2023-06-26T07:01:02;42.00;71.00
26947;DHT22;14501;52.282;10.560;2023-06-26T07:03:28;42.10;71.70
26947;DHT22;14501;52.282;10.560;2023-06-26T07:05:55;42.50;72.50
26947;DHT22;14501;52.282;10.560;2023-06-26T07:08:21;42.70;73.30
26947;DHT22;14501;52.282;10.560;2023-06-26T07:10:47;43.70;69.00
26947;DHT22;14501;52.282;10.560;2023-06-26T07:13:12;44.20;69.00
26947;DHT22;14501;52.282;10.560;2023-06-26T07:15:38;44.10;68.40
26947;DHT22;14501;52.282;10.560;2023-06-26T07:18:04;44.50;68.30
26947;DHT22;14501;52.282;10.560;2023-06-26T07:20:29;44.40;66.40
26947;DHT22;14501;52.282;10.560;2023-06-26T07:22:55;44.80;67.20
26947;DHT22;14501;52.282;10.560;2023-06-26T07:25:21;44.80;65.50
26947;DHT22;14501;52.282;10.560;2023-06-26T07:27:46;45.00;65.80
26947;DHT22;14501;52.282;10.560;2023-06-26T07:30:12;45.50;62.90
26947;DHT22;14501;52.282;10.560;2023-06-26T07:32:38;45.60;62.20
26947;DHT22;14501;52.282;10.560;2023-06-26T07:35:06;45.90;61.40
26947;DHT22;14501;52.282;10.560;2023-06-26T07:37:32;46.60;62.00
26947;DHT22;14501;52.282;10.560;2023-06-26T07:39:57;44.30;61.20
26947;DHT22;14501;52.282;10.560;2023-06-26T07:42:23;44.10;62.40
26947;DHT22;14501;52.282;10.560;2023-06-26T07:44:49;43.50;65.60
26947;DHT22;14501;52.282;10.560;2023-06-26T07:47:14;43.30;64.80
26947;DHT22;14501;52.282;10.560;2023-06-26T07:49:40;44.90;65.70
26947;DHT22;14501;52.282;10.560;2023-06-26T07:52:06;43.90;64.90
26947;DHT22;14501;52.282;10.560;2023-06-26T07:54:32;44.80;64.50
26947;DHT22;14501;52.282;10.560;2023-06-26T07:57:02;46.10;61.50
26947;DHT22;14501;52.282;10.560;2023-06-26T07:59:29;46.80;58.00
26947;DHT22;14501;52.282;10.560;2023-06-26T08:01:56;46.70;58.90
26947;DHT22;14501;52.282;10.560;2023-06-26T08:04:23;47.00;58.40
26947;DHT22;14501;52.282;10.560;2023-06-26T08:06:52;47.70;58.40
26947;DHT22;14501;52.282;10.560;2023-06-26T08:09:20;47.60;58.00
26947;DHT22;14501;52.282;10.560;2023-06-26T08:11:46;47.80;54.70
26947;DHT22;14501;52.282;10.560;2023-06-26T08:14:12;47.30;55.70
26947;DHT22;14501;52.282;10.560;2023-06-26T08:16:39;47.20;54.50
26947;DHT22;14501;52.282;10.560;2023-06-26T08:19:04;46.90;54.30
26947;DHT22;14501;52.282;10.560;2023-06-26T08:21:30;47.50;54.30
26947;DHT22;14501;52.282;10.560;2023-06-26T08:23:56;48.00;52.90
26947;DHT22;14501;52.282;10.560;2023-06-26T08:26:22;47.80;54.10
26947;DHT22;14501;52.282;10.560;2023-06-26T08:28:47;47.50;53.80
26947;DHT22;14501;52.282;10.560;2023-06-26T08:31:13;47.80;53.80
26947;DHT22;14501;52.282;10.560;2023-06-26T08:33:38;47.80;54.70
26947;DHT22;14501;52.282;10.560;2023-06-26T08:36:04;47.50;52.50
26947;DHT22;14501;52.282;10.560;2023-06-26T08:38:31;47.40;53.60
26947;DHT22;14501;52.282;10.560;2023-06-26T08:40:56;48.00;52.50
26947;DHT22;14501;52.282;10.560;2023-06-26T08:43:22;47.60;52.50
26947;DHT22;14501;52.282;10.560;2023-06-26T08:45:48;47.70;53.30
26947;DHT22;14501;52.282;10.560;2023-06-26T08:48:17;46.10;54.90
26947;DHT22;14501;52.282;10.560;2023-06-26T08:50:44;43.20;55.80
26947;DHT22;14501;52.282;10.560;2023-06-26T08:55:38;42.20;58.70
26947;DHT22;14501;52.282;10.560;2023-06-26T08:58:06;42.00;59.70
26947;DHT22;14501;52.282;10.560;2023-06-26T09:00:32;43.50;57.30
26947;DHT22;14501;52.282;10.560;2023-06-26T09:02:59;43.50;59.60
26947;DHT22;14501;52.282;10.560;2023-06-26T09:05:26;44.60;56.20
26947;DHT22;14501;52.282;10.560;2023-06-26T09:07:53;45.70;61.90
26947;DHT22;14501;52.282;10.560;2023-06-26T09:10:21;46.90;56.20
26947;DHT22;14501;52.282;10.560;2023-06-26T09:12:47;47.10;57.40
26947;DHT22;14501;52.282;10.560;2023-06-26T09:15:14;47.40;56.40
26947;DHT22;14501;52.282;10.560;2023-06-26T09:17:40;47.20;56.80
26947;DHT22;14501;52.282;10.560;2023-06-26T09:20:07;45.60;57.70
26947;DHT22;14501;52.282;10.560;2023-06-26T09:22:36;45.30;60.30
26947;DHT22;14501;52.282;10.560;2023-06-26T09:25:05;43.40;57.60
26947;DHT22;14501;52.282;10.560;2023-06-26T09:27:31;43.80;60.30
26947;DHT22;14501;52.282;10.560;2023-06-26T09:29:57;45.10;58.30
26947;DHT22;14501;52.282;10.560;2023-06-26T09:32:26;45.40;56.80
26947;DHT22;14501;52.282;10.560;2023-06-26T09:34:53;46.10;55.90
26947;DHT22;14501;52.282;10.560;2023-06-26T09:37:21;46.10;54.80
26947;DHT22;14501;52.282;10.560;2023-06-26T09:39:48;46.70;55.70
26947;DHT22;14501;52.282;10.560;2023-06-26T09:42:15;46.70;57.20
26947;DHT22;14501;52.282;10.560;2023-06-26T09:44:44;46.60;54.20
26947;DHT22;14501;52.282;10.560;2023-06-26T09:47:11;46.90;56.80
26947;DHT22;14501;52.282;10.560;2023-06-26T09:49:41;45.30;55.00
26947;DHT22;14501;52.282;10.560;2023-06-26T09:52:07;45.10;55.60
26947;DHT22;14501;52.282;10.560;2023-06-26T09:54:33;44.40;60.50
26947;DHT22;14501;52.282;10.560;2023-06-26T09:57:13;43.00;61.40
26947;DHT22;14501;52.282;10.560;2023-06-26T09:59:40;42.40;61.90
26947;DHT22;14501;52.282;10.560;2023-06-26T10:02:06;42.50;62.70
26947;DHT22;14501;52.282;10.560;2023-06-26T10:04:35;43.30;64.40
26947;DHT22;14501;52.282;10.560;2023-06-26T10:07:03;43.90;63.20
26947;DHT22;14501;52.282;10.560;2023-06-26T10:09:30;45.10;58.60
26947;DHT22;14501;52.282;10.560;2023-06-26T10:12:01;45.10;58.80
26947;DHT22;14501;52.282;10.560;2023-06-26T10:14:35;45.20;59.10
26947;DHT22;14501;52.282;10.560;2023-06-26T10:17:04;45.00;59.50
26947;DHT22;14501;52.282;10.560;2023-06-26T10:19:33;44.70;60.60
26947;DHT22;14501;52.282;10.560;2023-06-26T10:22:02;44.70;61.90
26947;DHT22;14501;52.282;10.560;2023-06-26T10:24:30;44.30;60.50
26947;DHT22;14501;52.282;10.560;2023-06-26T10:27:05;43.60;60.20
26947;DHT22;14501;52.282;10.560;2023-06-26T10:29:34;43.40;63.50
26947;DHT22;14501;52.282;10.560;2023-06-26T10:32:02;43.50;63.80
26947;DHT22;14501;52.282;10.560;2023-06-26T10:34:29;43.80;60.90
26947;DHT22;14501;52.282;10.560;2023-06-26T10:37:01;43.60;61.40
26947;DHT22;14501;52.282;10.560;2023-06-26T10:39:28;42.60;62.20
26947;DHT22;14501;52.282;10.560;2023-06-26T10:42:08;42.60;62.00
26947;DHT22;14501;52.282;10.560;2023-06-26T10:44:41;41.70;65.00
26947;DHT22;14501;52.282;10.560;2023-06-26T10:47:11;40.80;64.70
26947;DHT22;14501;52.282;10.560;2023-06-26T10:49:37;37.80;68.80
26947;DHT22;14501;52.282;10.560;2023-06-26T10:52:05;37.00;70.70
26947;DHT22;14501;52.282;10.560;2023-06-26T10:54:31;36.10;73.80
26947;DHT22;14501;52.282;10.560;2023-06-26T10:56:58;34.10;77.30
26947;DHT22;14501;52.282;10.560;2023-06-26T10:59:26;33.60;79.90
26947;DHT22;14501;52.282;10.560;2023-06-26T11:02:02;33.50;80.00
26947;DHT22;14501;52.282;10.560;2023-06-26T11:04:51;33.10;81.00
26947;DHT22;14501;52.282;10.560;2023-06-26T11:10:01;32.10;86.00
26947;DHT22;14501;52.282;10.560;2023-06-26T11:15:07;32.10;85.90
26947;DHT22;14501;52.282;10.560;2023-06-26T11:17:33;31.80;85.30
26947;DHT22;14501;52.282;10.560;2023-06-26T11:19:59;31.50;84.90
26947;DHT22;14501;52.282;10.560;2023-06-26T11:22:26;31.10;87.20
26947;DHT22;14501;52.282;10.560;2023-06-26T11:24:53;30.70;86.60
26947;DHT22;14501;52.282;10.560;2023-06-26T11:27:19;30.50;86.70
26947;DHT22;14501;52.282;10.560;2023-06-26T11:29:48;29.90;90.00
26947;DHT22;14501;52.282;10.560;2023-06-26T11:32:17;29.70;90.30
26947;DHT22;14501;52.282;10.560;2023-06-26T11:34:42;29.20;92.50
26947;DHT22;14501;52.282;10.560;2023-06-26T11:37:08;29.10;92.80
26947;DHT22;14501;52.282;10.560;2023-06-26T11:39:34;29.10;93.00
26947;DHT22;14501;52.282;10.560;2023-06-26T11:42:00;29.00;93.80
26947;DHT22;14501;52.282;10.560;2023-06-26T11:44:30;29.10;92.60
26947;DHT22;14501;52.282;10.560;2023-06-26T11:46:57;29.10;91.80
26947;DHT22;14501;52.282;10.560;2023-06-26T11:49:23;29.00;92.10
26947;DHT22;14501;52.282;10.560;2023-06-26T11:51:52;29.30;91.50
26947;DHT22;14501;52.282;10.560;2023-06-26T11:54:26;29.20;91.40
26947;DHT22;14501;52.282;10.560;2023-06-26T11:56:53;29.30;91.80
26947;DHT22;14501;52.282;10.560;2023-06-26T11:59:19;29.10;91.50
26947;DHT22;14501;52.282;10.560;2023-06-26T12:04:12;28.80;91.70
26947;DHT22;14501;52.282;10.560;2023-06-26T12:06:41;28.80;92.10
26947;DHT22;14501;52.282;10.560;2023-06-26T12:09:09;27.90;93.00
26947;DHT22;14501;52.282;10.560;2023-06-26T12:11:38;27.80;93.20
26947;DHT22;14501;52.282;10.560;2023-06-26T12:14:06;27.40;94.00
26947;DHT22;14501;52.282;10.560;2023-06-26T12:16:34;26.90;94.50
26947;DHT22;14501;52.282;10.560;2023-06-26T12:19:01;26.30;95.70
26947;DHT22;14501;52.282;10.560;2023-06-26T12:24:02;25.70;97.10
26947;DHT22;14501;52.282;10.560;2023-06-26T12:26:28;25.50;97.80
26947;DHT22;14501;52.282;10.560;2023-06-26T12:29:04;25.20;99.70
26947;DHT22;14501;52.282;10.560;2023-06-26T12:31:31;25.10;99.90
26947;DHT22;14501;52.282;10.560;2023-06-26T12:33:57;25.00;99.90
26947;DHT22;14501;52.282;10.560;2023-06-26T12:36:23;24.70;99.90
26947;DHT22;14501;52.282;10.560;2023-06-26T12:38:48;24.50;99.90
26947;DHT22;14501;52.282;10.560;2023-06-26T12:41:15;24.50;99.90
26947;DHT22;14501;52.282;10.560;2023-06-26T12:43:41;24.70;99.90
26947;DHT22;14501;52.282;10.560;2023-06-26T12:46:07;24.60;99.90
26947;DHT22;14501;52.282;10.560;2023-06-26T12:48:39;24.50;99.90
26947;DHT22;14501;52.282;10.560;2023-06-26T12:51:12;24.70;99.90
26947;DHT22;14501;52.282;10.560;2023-06-26T12:53:38;24.80;99.90
26947;DHT22;14501;52.282;10.560;2023-06-26T12:56:05;25.20;99.90
26947;DHT22;14501;52.282;10.560;2023-06-26T12:58:32;25.60;99.90
26947;DHT22;14501;52.282;10.560;2023-06-26T13:00:57;25.80;99.90
26947;DHT22;14501;52.282;10.560;2023-06-26T13:03:23;26.00;99.90
26947;DHT22;14501;52.282;10.560;2023-06-26T13:05:48;26.30;99.90
26947;DHT22;14501;52.282;10.560;2023-06-26T13:08:14;26.80;99.90
26947;DHT22;14501;52.282;10.560;2023-06-26T13:10:43;27.60;99.90
26947;DHT22;14501;52.282;10.560;2023-06-26T13:13:10;27.70;99.90
26947;DHT22;14501;52.282;10.560;2023-06-26T13:15:36;28.10;99.90
26947;DHT22;14501;52.282;10.560;2023-06-26T13:18:01;28.10;99.90
26947;DHT22;14501;52.282;10.560;2023-06-26T13:20:27;27.00;99.90
26947;DHT22;14501;52.282;10.560;2023-06-26T13:22:53;27.00;99.90
26947;DHT22;14501;52.282;10.560;2023-06-26T13:25:20;26.30;99.90
26947;DHT22;14501;52.282;10.560;2023-06-26T13:27:45;25.80;99.90
26947;DHT22;14501;52.282;10.560;2023-06-26T13:30:12;25.50;99.90
26947;DHT22;14501;52.282;10.560;2023-06-26T13:32:37;25.40;99.90
26947;DHT22;14501;52.282;10.560;2023-06-26T13:35:03;25.90;99.90
26947;DHT22;14501;52.282;10.560;2023-06-26T13:37:29;26.60;99.90
26947;DHT22;14501;52.282;10.560;2023-06-26T13:39:55;27.20;99.90
26947;DHT22;14501;52.282;10.560;2023-06-26T13:42:21;27.70;99.90
26947;DHT22;14501;52.282;10.560;2023-06-26T13:44:46;27.80;99.90
26947;DHT22;14501;52.282;10.560;2023-06-26T13:47:13;27.80;99.90
26947;DHT22;14501;52.282;10.560;2023-06-26T13:49:40;27.80;99.90
26947;DHT22;14501;52.282;10.560;2023-06-26T13:52:06;27.80;99.60
26947;DHT22;14501;52.282;10.560;2023-06-26T13:54:35;28.00;99.90
26947;DHT22;14501;52.282;10.560;2023-06-26T13:57:01;28.00;99.90
26947;DHT22;14501;52.282;10.560;2023-06-26T13:59:27;27.90;98.50
26947;DHT22;14501;52.282;10.560;2023-06-26T14:01:53;27.90;98.20
26947;DHT22;14501;52.282;10.560;2023-06-26T14:04:19;28.10;98.30
26947;DHT22;14501;52.282;10.560;2023-06-26T14:06:44;28.30;98.00
26947;DHT22;14501;52.282;10.560;2023-06-26T14:09:11;28.30;98.20
26947;DHT22;14501;52.282;10.560;2023-06-26T14:11:36;28.40;97.30
26947;DHT22;14501;52.282;10.560;2023-06-26T14:14:02;28.50;96.50
26947;DHT22;14501;52.282;10.560;2023-06-26T14:16:28;28.30;96.90
26947;DHT22;14501;52.282;10.560;2023-06-26T14:18:54;28.20;96.50
26947;DHT22;14501;52.282;10.560;2023-06-26T14:21:20;27.90;96.50
26947;DHT22;14501;52.282;10.560;2023-06-26T14:23:45;27.80;97.00
26947;DHT22;14501;52.282;10.560;2023-06-26T14:26:11;27.60;96.80
26947;DHT22;14501;52.282;10.560;2023-06-26T14:28:38;27.50;98.10
26947;DHT22;14501;52.282;10.560;2023-06-26T14:31:04;27.00;96.40
26947;DHT22;14501;52.282;10.560;2023-06-26T14:33:30;27.10;96.30
26947;DHT22;14501;52.282;10.560;2023-06-26T14:35:55;27.00;96.40
26947;DHT22;14501;52.282;10.560;2023-06-26T14:38:21;26.80;96.80
26947;DHT22;14501;52.282;10.560;2023-06-26T14:40:46;26.50;96.20
26947;DHT22;14501;52.282;10.560;2023-06-26T14:43:12;26.40;96.60
26947;DHT22;14501;52.282;10.560;2023-06-26T14:45:38;26.50;96.90
26947;DHT22;14501;52.282;10.560;2023-06-26T14:48:03;26.90;96.50
26947;DHT22;14501;52.282;10.560;2023-06-26T14:50:29;28.00;95.00
26947;DHT22;14501;52.282;10.560;2023-06-26T14:52:55;28.00;95.20
26947;DHT22;14501;52.282;10.560;2023-06-26T14:55:20;28.40;94.50
26947;DHT22;14501;52.282;10.560;2023-06-26T14:57:46;28.50;94.40
26947;DHT22;14501;52.282;10.560;2023-06-26T15:00:12;28.30;94.20
26947;DHT22;14501;52.282;10.560;2023-06-26T15:02:38;28.20;94.80
26947;DHT22;14501;52.282;10.560;2023-06-26T15:05:03;27.90;95.20
26947;DHT22;14501;52.282;10.560;2023-06-26T15:07:29;27.70;95.00
26947;DHT22;14501;52.282;10.560;2023-06-26T15:09:55;27.50;95.00
26947;DHT22;14501;52.282;10.560;2023-06-26T15:12:20;27.30;96.20
26947;DHT22;14501;52.282;10.560;2023-06-26T15:14:47;27.20;95.70
26947;DHT22;14501;52.282;10.560;2023-06-26T15:17:12;27.00;96.10
26947;DHT22;14501;52.282;10.560;2023-06-26T15:19:38;27.10;96.30
26947;DHT22;14501;52.282;10.560;2023-06-26T15:22:04;26.90;95.20
26947;DHT22;14501;52.282;10.560;2023-06-26T15:26:56;26.90;96.10
26947;DHT22;14501;52.282;10.560;2023-06-26T15:29:21;26.90;97.60
26947;DHT22;14501;52.282;10.560;2023-06-26T15:31:47;26.90;98.10
26947;DHT22;14501;52.282;10.560;2023-06-26T15:36:39;26.60;96.90
26947;DHT22;14501;52.282;10.560;2023-06-26T15:39:05;26.40;96.50